Time;durP1;ratioP1;P1;durP2;ratioP2;P2;SDS_P1;SDS_P2;PMS_P1;PMS_P2;Temp;Humidity;BMP_temperature;BMP_pressure;BME280_temperature;BME280_humidity;BME280_pressure;Samples;Min_cycle;Max_cycle;Signal;HPM_P1;HPM_P2
2022/11/15 00:00:32;;;;;;;9.43;5.65;;;18.90;56.90;;;;;;5018766;28;20483;-68
2022/11/15 00:02:58;;;;;;;8.82;5.65;;;18.90;56.90;;;;;;5015607;28;20041;-68
2022/11/15 00:05:23;;;;;;;7.95;5.68;;;18.90;56.90;;;;;;5031534;28;20436;-69
2022/11/15 00:07:49;;;;;;;7.50;5.30;;;18.90;56.90;;;;;;5013134;28;20136;-68
2022/11/15 00:10:15;;;;;;;6.35;4.90;;;18.90;56.90;;;;;;5017621;28;20084;-69
2022/11/15 00:12:40;;;;;;;8.52;5.40;;;18.90;56.90;;;;;;5008899;28;20772;-69
2022/11/15 00:15:07;;;;;;;7.80;4.93;;;18.90;56.80;;;;;;5033707;28;20412;-68
2022/11/15 00:17:32;;;;;;;8.60;5.20;;;18.90;56.90;;;;;;5010048;28;20411;-69
2022/11/15 00:19:58;;;;;;;7.97;4.95;;;18.90;57.60;;;;;;5020195;28;20065;-69
2022/11/15 00:22:23;;;;;;;8.38;5.35;;;18.90;56.80;;;;;;5016649;28;20550;-69
2022/11/15 00:24:49;;;;;;;10.15;5.60;;;18.90;56.80;;;;;;5039568;28;20559;-69
2022/11/15 00:27:15;;;;;;;7.53;5.13;;;18.90;56.90;;;;;;5041245;28;20118;-68
2022/11/15 00:29:43;;;;;;;9.52;5.07;;;18.90;56.80;;;;;;5019042;28;20093;-70
2022/11/15 00:32:10;;;;;;;7.50;5.10;;;18.90;56.70;;;;;;5024080;28;20531;-71
2022/11/15 00:34:36;;;;;;;7.32;4.95;;;18.90;56.70;;;;;;5016769;28;20060;-69
2022/11/15 00:37:01;;;;;;;8.75;5.85;;;18.90;56.70;;;;;;5019631;28;20045;-69
2022/11/15 00:39:27;;;;;;;7.97;5.45;;;18.90;56.70;;;;;;5022655;28;20742;-67
2022/11/15 00:41:52;;;;;;;7.57;5.32;;;18.80;56.70;;;;;;5040705;28;20061;-70
2022/11/15 00:44:18;;;;;;;6.78;4.93;;;18.90;56.70;;;;;;5022139;28;20041;-69
2022/11/15 00:46:44;;;;;;;6.90;4.90;;;18.90;56.70;;;;;;5038911;28;20425;-70
2022/11/15 00:49:09;;;;;;;6.22;4.82;;;18.90;56.60;;;;;;5039516;28;20033;-68
2022/11/15 00:51:38;;;;;;;9.10;5.13;;;18.80;56.60;;;;;;5022332;28;20052;-70
2022/11/15 00:54:05;;;;;;;7.75;4.97;;;18.90;56.60;;;;;;5023127;28;20029;-70
2022/11/15 00:56:30;;;;;;;8.18;4.97;;;18.90;56.60;;;;;;5041330;28;20065;-69
2022/11/15 00:58:56;;;;;;;7.78;4.82;;;18.80;56.50;;;;;;5021994;28;20075;-68
2022/11/15 01:01:21;;;;;;;8.80;4.80;;;18.80;56.50;;;;;;5040108;28;20060;-70
2022/11/15 01:03:47;;;;;;;6.13;5.07;;;18.90;56.50;;;;;;5020946;28;20031;-70
2022/11/15 01:06:13;;;;;;;6.63;5.05;;;18.80;56.50;;;;;;5035689;28;20141;-71
2022/11/15 01:08:41;;;;;;;6.82;4.60;;;18.80;56.50;;;;;;5021442;28;20071;-70
2022/11/15 01:11:10;;;;;;;7.32;5.00;;;18.80;56.40;;;;;;5021236;28;20037;-69
2022/11/15 01:13:37;;;;;;;7.10;4.70;;;18.80;57.20;;;;;;5040981;28;20127;-71
2022/11/15 01:16:12;;;;;;;7.30;4.68;;;18.80;56.40;;;;;;5037235;28;20044;-70
2022/11/15 01:18:38;;;;;;;6.93;4.88;;;18.80;56.30;;;;;;5024099;28;20072;-70
2022/11/15 01:21:06;;;;;;;5.78;4.25;;;18.80;56.30;;;;;;5021252;28;20064;-68
2022/11/15 01:23:32;;;;;;;5.35;3.95;;;18.80;56.30;;;;;;5021349;28;20094;-70
2022/11/15 01:26:02;;;;;;;6.90;4.85;;;18.80;56.30;;;;;;5031585;28;20515;-68
2022/11/15 01:28:33;;;;;;;7.30;4.78;;;18.80;56.30;;;;;;5019994;28;20120;-71
2022/11/15 01:31:00;;;;;;;6.07;4.63;;;18.80;56.20;;;;;;5022369;28;20747;-70
2022/11/15 01:33:27;;;;;;;6.80;4.70;;;18.80;56.20;;;;;;5040157;28;20075;-69
2022/11/15 01:35:52;;;;;;;6.57;4.55;;;18.80;56.20;;;;;;5037548;28;20032;-70
2022/11/15 01:38:18;;;;;;;5.72;4.20;;;18.80;56.10;;;;;;5004876;28;20512;-71
2022/11/15 01:40:43;;;;;;;6.35;4.60;;;18.80;56.10;;;;;;5020156;28;20048;-71
2022/11/15 01:43:24;;;;;;;5.38;4.30;;;18.70;56.00;;;;;;5039449;28;20049;-71
2022/11/15 01:45:55;;;;;;;6.70;4.70;;;18.80;56.00;;;;;;5039305;28;20037;-68
2022/11/15 01:48:21;;;;;;;5.72;4.50;;;18.80;56.00;;;;;;5022329;28;20526;-70
2022/11/15 01:50:48;;;;;;;6.38;4.85;;;18.80;56.00;;;;;;5037875;28;20055;-69
2022/11/15 01:53:15;;;;;;;5.88;4.45;;;18.80;56.00;;;;;;5037909;28;20143;-69
2022/11/15 01:55:40;;;;;;;6.07;4.43;;;18.80;56.00;;;;;;5037472;28;20646;-68
2022/11/15 01:58:07;;;;;;;5.88;4.38;;;18.80;56.00;;;;;;5018475;28;20132;-69
2022/11/15 02:00:33;;;;;;;6.13;4.45;;;18.80;56.00;;;;;;5035151;28;20387;-70
2022/11/15 02:02:59;;;;;;;6.47;4.65;;;18.80;55.90;;;;;;5038346;28;20618;-71
2022/11/15 02:05:24;;;;;;;9.23;4.70;;;18.80;55.90;;;;;;5039118;28;20354;-68
2022/11/15 02:07:50;;;;;;;5.13;4.22;;;18.80;55.90;;;;;;5015254;28;20048;-70
2022/11/15 02:10:21;;;;;;;6.25;4.40;;;18.80;55.90;;;;;;5021811;28;20095;-68
2022/11/15 02:12:48;;;;;;;5.57;4.35;;;18.80;55.90;;;;;;5018540;28;20073;-69
2022/11/15 02:15:14;;;;;;;7.70;4.20;;;18.80;55.80;;;;;;5038438;28;20100;-69
2022/11/15 02:17:50;;;;;;;6.70;4.25;;;18.80;55.80;;;;;;5016258;28;20049;-69
2022/11/15 02:20:40;;;;;;;6.13;4.15;;;18.80;55.80;;;;;;5015708;28;21952;-71
2022/11/15 02:23:33;;;;;;;7.72;4.50;;;18.80;55.70;;;;;;5010867;28;20049;-68
2022/11/15 02:26:36;;;;;;;5.97;4.22;;;18.80;55.80;;;;;;5019120;28;20056;-71
2022/11/15 02:29:11;;;;;;;6.25;4.30;;;18.80;55.70;;;;;;5017070;28;20045;-69
2022/11/15 02:31:57;;;;;;;7.25;4.40;;;18.80;55.80;;;;;;5020842;28;20068;-70
2022/11/15 02:34:30;;;;;;;5.90;4.30;;;18.70;55.60;;;;;;5018209;28;20132;-71
2022/11/15 02:37:11;;;;;;;5.82;4.00;;;18.80;55.70;;;;;;5019272;28;20049;-70
2022/11/15 02:40:17;;;;;;;5.22;4.30;;;18.80;55.60;;;;;;5033332;28;20511;-70
2022/11/15 02:45:48;;;;;;;5.45;3.95;;;18.80;55.70;;;;;;5017415;28;20052;-70
2022/11/15 02:48:15;;;;;;;6.80;4.68;;;18.80;55.60;;;;;;5037699;28;20068;-70
2022/11/15 02:50:42;;;;;;;5.40;3.90;;;18.80;55.60;;;;;;5020158;28;20037;-70
2022/11/15 02:53:08;;;;;;;6.25;4.28;;;18.70;55.50;;;;;;5017720;28;20103;-68
2022/11/15 02:55:35;;;;;;;5.50;4.28;;;18.80;55.60;;;;;;5036085;28;20560;-70
2022/11/15 02:58:07;;;;;;;5.88;4.15;;;18.80;55.60;;;;;;5036846;28;20116;-70
2022/11/15 03:00:39;;;;;;;5.97;3.78;;;18.80;55.60;;;;;;5019139;28;20520;-69
2022/11/15 03:03:47;;;;;;;5.88;3.80;;;18.80;55.70;;;;;;5037136;28;20053;-70
2022/11/15 03:06:43;;;;;;;5.45;4.10;;;18.80;55.50;;;;;;5015270;28;20079;-69
2022/11/15 03:09:15;;;;;;;6.78;4.22;;;18.80;55.50;;;;;;5017316;28;20492;-71
2022/11/15 03:11:48;;;;;;;4.85;3.85;;;18.80;55.60;;;;;;5020367;28;20088;-68
2022/11/15 03:14:31;;;;;;;5.80;4.35;;;18.70;55.50;;;;;;5018126;28;20048;-66
2022/11/15 03:17:18;;;;;;;6.18;4.43;;;18.80;55.50;;;;;;5020433;28;20051;-68
2022/11/15 03:19:46;;;;;;;5.95;3.55;;;18.80;55.50;;;;;;5003306;28;20052;-70
2022/11/15 03:22:17;;;;;;;4.97;3.80;;;18.70;55.50;;;;;;5017836;28;20463;-69
2022/11/15 03:24:46;;;;;;;5.97;4.10;;;18.80;55.50;;;;;;5036278;28;20457;-69
2022/11/15 03:27:17;;;;;;;6.20;3.97;;;18.70;55.50;;;;;;5016216;28;20044;-69
2022/11/15 03:29:49;;;;;;;6.13;4.35;;;18.80;55.50;;;;;;5016549;28;20045;-69
2022/11/15 03:32:23;;;;;;;5.15;3.88;;;18.70;55.40;;;;;;5003174;28;20693;-68
2022/11/15 03:34:56;;;;;;;4.82;3.80;;;18.70;55.40;;;;;;5033085;28;20572;-70
2022/11/15 03:37:29;;;;;;;5.82;3.97;;;18.70;55.40;;;;;;5038073;28;20094;-68
2022/11/15 03:39:54;;;;;;;5.05;3.92;;;18.70;55.40;;;;;;5002996;28;20485;-71
2022/11/15 03:42:44;;;;;;;5.53;3.80;;;18.70;55.40;;;;;;5037033;28;20433;-70
2022/11/15 03:45:31;;;;;;;5.55;3.78;;;18.70;55.40;;;;;;5016858;28;20145;-70
2022/11/15 03:48:07;;;;;;;6.70;3.83;;;18.80;55.50;;;;;;5015509;28;20049;-71
2022/11/15 03:50:33;;;;;;;5.60;3.67;;;18.80;55.40;;;;;;5035736;28;20057;-69
2022/11/15 03:52:59;;;;;;;5.13;3.42;;;18.80;55.50;;;;;;5035969;28;20041;-69
2022/11/15 03:55:25;;;;;;;5.22;3.80;;;18.80;55.40;;;;;;5015727;28;20369;-69
2022/11/15 03:57:56;;;;;;;7.38;4.03;;;18.80;55.40;;;;;;5037379;28;20668;-68
2022/11/15 04:00:22;;;;;;;5.45;3.90;;;18.70;55.30;;;;;;5036294;28;20051;-70
2022/11/15 04:02:47;;;;;;;5.68;4.10;;;18.80;55.40;;;;;;5024179;28;20040;-70
2022/11/15 04:05:13;;;;;;;5.80;3.58;;;18.80;55.40;;;;;;5018609;28;20118;-69
2022/11/15 04:07:39;;;;;;;7.75;4.10;;;18.80;55.40;;;;;;5036841;28;20583;-70
2022/11/15 04:10:05;;;;;;;5.28;3.53;;;18.70;55.40;;;;;;5039745;28;20037;-68
2022/11/15 04:12:36;;;;;;;6.90;3.95;;;18.80;55.30;;;;;;5023773;28;20084;-68
2022/11/15 04:15:08;;;;;;;6.20;4.10;;;18.80;55.50;;;;;;5039117;28;20065;-71
2022/11/15 04:17:38;;;;;;;5.28;3.60;;;18.80;55.30;;;;;;5023115;28;20052;-69
2022/11/15 04:25:45;;;;;;;6.18;4.13;;;18.80;55.40;;;;;;5037819;28;20194;-70
2022/11/15 04:28:11;;;;;;;5.45;3.88;;;18.80;55.30;;;;;;5029603;28;20064;-69
2022/11/15 04:30:37;;;;;;;7.28;3.90;;;18.80;55.40;;;;;;5040000;28;20033;-71
2022/11/15 04:33:03;;;;;;;4.90;3.80;;;18.80;55.30;;;;;;5024628;28;20064;-69
2022/11/15 04:35:29;;;;;;;6.45;4.07;;;18.80;55.40;;;;;;5014734;28;20414;-69
2022/11/15 04:37:56;;;;;;;5.13;3.42;;;18.80;55.40;;;;;;5037599;28;20052;-69
2022/11/15 04:40:21;;;;;;;6.22;4.00;;;18.80;55.40;;;;;;5036496;28;20572;-69
2022/11/15 04:42:47;;;;;;;6.25;4.00;;;18.80;55.40;;;;;;5035449;28;20140;-70
2022/11/15 04:45:13;;;;;;;6.30;3.75;;;18.80;55.40;;;;;;5018948;28;20346;-70
2022/11/15 04:47:38;;;;;;;6.57;4.03;;;18.80;55.40;;;;;;5024006;28;20130;-70
2022/11/15 04:50:04;;;;;;;6.97;4.10;;;18.80;55.40;;;;;;5022304;28;20029;-71
2022/11/15 04:52:30;;;;;;;8.02;4.57;;;18.80;55.40;;;;;;5022403;28;20124;-69
2022/11/15 04:54:56;;;;;;;7.05;4.32;;;18.80;55.40;;;;;;5022543;28;21755;-67
2022/11/15 04:57:21;;;;;;;4.88;3.63;;;18.80;55.30;;;;;;5039474;28;20045;-69
2022/11/15 04:59:47;;;;;;;7.22;4.00;;;18.80;55.40;;;;;;5039829;28;20481;-70
2022/11/15 05:02:12;;;;;;;5.57;3.58;;;18.80;55.40;;;;;;5021629;28;20595;-71
2022/11/15 05:04:38;;;;;;;6.32;4.10;;;18.80;55.40;;;;;;5042469;28;20694;-70
2022/11/15 05:07:04;;;;;;;5.63;3.92;;;18.80;55.40;;;;;;5022306;28;20047;-70
2022/11/15 05:09:29;;;;;;;6.60;3.70;;;18.80;55.40;;;;;;5038205;28;20159;-69
2022/11/15 05:11:55;;;;;;;5.18;4.00;;;18.70;55.40;;;;;;5020345;28;20041;-69
2022/11/15 05:14:20;;;;;;;6.88;4.07;;;18.80;55.40;;;;;;5038765;28;20049;-69
2022/11/15 05:16:46;;;;;;;5.13;3.90;;;18.80;55.40;;;;;;5043068;28;20095;-70
2022/11/15 05:19:11;;;;;;;5.30;3.83;;;18.80;55.50;;;;;;5030002;28;20041;-70
2022/11/15 05:21:38;;;;;;;6.28;3.88;;;18.80;55.50;;;;;;5021232;28;20041;-69
2022/11/15 05:24:04;;;;;;;5.60;4.00;;;18.80;55.50;;;;;;5037035;28;20052;-70
2022/11/15 05:26:30;;;;;;;5.30;3.80;;;18.80;55.40;;;;;;5015548;28;20357;-69
2022/11/15 05:28:58;;;;;;;6.60;4.00;;;18.80;55.50;;;;;;5027382;28;20050;-71
2022/11/15 05:31:25;;;;;;;8.65;4.32;;;18.70;55.40;;;;;;5035470;28;20049;-68
2022/11/15 05:33:51;;;;;;;6.53;4.28;;;18.80;55.50;;;;;;5038392;28;20060;-69
2022/11/15 05:36:40;;;;;;;5.68;3.70;;;18.80;55.50;;;;;;5009654;28;20190;-69
2022/11/15 05:39:07;;;;;;;4.93;3.40;;;18.80;55.50;;;;;;5015332;28;20568;-69
2022/11/15 05:41:41;;;;;;;7.40;3.97;;;18.80;55.50;;;;;;5018827;28;20982;-68
2022/11/15 05:44:10;;;;;;;6.63;3.78;;;18.80;55.50;;;;;;5013817;28;20090;-70
2022/11/15 05:46:39;;;;;;;7.10;4.18;;;18.80;55.60;;;;;;5035268;28;20060;-68
2022/11/15 05:49:09;;;;;;;5.45;3.83;;;18.70;55.50;;;;;;5017631;28;20033;-68
2022/11/15 05:51:34;;;;;;;6.85;3.97;;;18.80;55.60;;;;;;5033135;28;20132;-69
2022/11/15 05:54:00;;;;;;;7.95;3.58;;;18.80;55.60;;;;;;5019934;28;20137;-69
2022/11/15 05:56:26;;;;;;;6.65;3.67;;;18.80;55.60;;;;;;5017933;28;20072;-69
2022/11/15 05:58:54;;;;;;;5.75;4.00;;;18.80;55.60;;;;;;5004448;28;20128;-70
2022/11/15 06:01:20;;;;;;;4.50;3.85;;;18.80;55.60;;;;;;5021061;28;20381;-70
2022/11/15 06:03:45;;;;;;;7.03;4.05;;;18.70;55.60;;;;;;5018708;28;20033;-69
2022/11/15 06:06:11;;;;;;;6.45;3.92;;;18.80;55.70;;;;;;5035648;28;20029;-69
2022/11/15 06:08:36;;;;;;;5.53;3.70;;;18.80;55.60;;;;;;5017224;28;20044;-68
2022/11/15 06:11:06;;;;;;;5.50;3.92;;;18.70;55.60;;;;;;5016521;28;20151;-70
2022/11/15 06:13:33;;;;;;;5.55;3.97;;;18.80;55.60;;;;;;5018254;28;20382;-70
2022/11/15 06:15:59;;;;;;;6.72;4.10;;;18.80;55.60;;;;;;5035498;28;20045;-69
2022/11/15 06:18:24;;;;;;;5.85;3.80;;;18.80;55.70;;;;;;5027921;28;20051;-71
2022/11/15 06:20:50;;;;;;;5.28;3.63;;;18.80;55.70;;;;;;5015211;28;20035;-70
2022/11/15 06:23:17;;;;;;;6.22;3.80;;;18.80;55.70;;;;;;5002120;28;20148;-67
2022/11/15 06:25:42;;;;;;;6.82;3.80;;;18.80;55.70;;;;;;5034719;28;20045;-72
2022/11/15 06:28:08;;;;;;;8.32;4.22;;;18.80;55.90;;;;;;5033046;28;20055;-68
2022/11/15 06:30:34;;;;;;;8.23;4.15;;;18.80;56.20;;;;;;5035327;28;20037;-69
2022/11/15 06:33:04;;;;;;;6.05;4.20;;;18.80;56.40;;;;;;5018473;28;20080;-69
2022/11/15 06:35:33;;;;;;;8.48;3.97;;;18.80;56.70;;;;;;5019636;28;20048;-69
2022/11/15 06:38:04;;;;;;;7.95;4.22;;;18.80;56.70;;;;;;5033921;28;20079;-69
2022/11/15 06:40:29;;;;;;;6.45;4.20;;;18.80;56.80;;;;;;5034372;28;20033;-70
2022/11/15 06:43:00;;;;;;;5.88;4.10;;;18.80;56.80;;;;;;5016833;28;20856;-69
2022/11/15 06:45:26;;;;;;;6.55;4.00;;;18.90;57.00;;;;;;5036074;28;20561;-70
2022/11/15 06:47:51;;;;;;;9.60;4.47;;;18.90;57.10;;;;;;5018923;28;20554;-69
2022/11/15 06:50:17;;;;;;;7.93;4.13;;;18.90;57.20;;;;;;5019751;28;20045;-68
2022/11/15 06:52:46;;;;;;;9.10;4.15;;;18.90;57.20;;;;;;5025144;28;20037;-69
2022/11/15 06:55:14;;;;;;;10.25;4.28;;;18.80;57.20;;;;;;5003223;28;20105;-68
2022/11/15 06:57:48;;;;;;;10.40;4.40;;;18.90;57.50;;;;;;5036656;28;20029;-68
2022/11/15 07:00:15;;;;;;;7.80;4.22;;;18.80;57.60;;;;;;5020939;28;20055;-69
2022/11/15 07:02:41;;;;;;;13.48;4.78;;;18.80;57.70;;;;;;5019905;28;20670;-70
2022/11/15 07:05:07;;;;;;;10.60;4.18;;;18.90;57.80;;;;;;5019425;28;20100;-69
2022/11/15 07:07:32;;;;;;;7.50;4.35;;;18.80;57.80;;;;;;5037402;28;20504;-71
2022/11/15 07:09:58;;;;;;;5.68;4.07;;;18.80;57.90;;;;;;5017925;28;20110;-69
2022/11/15 07:12:27;;;;;;;8.68;4.30;;;18.80;58.00;;;;;;5018072;28;20084;-69
2022/11/15 07:14:53;;;;;;;8.60;4.55;;;18.80;58.00;;;;;;5028491;28;20104;-69
2022/11/15 07:17:19;;;;;;;9.63;4.47;;;18.80;58.10;;;;;;5012535;28;20036;-70
2022/11/15 07:19:51;;;;;;;10.43;5.22;;;18.80;58.20;;;;;;5001038;28;20045;-70
2022/11/15 07:22:17;;;;;;;10.90;4.40;;;18.80;58.20;;;;;;5021318;28;20057;-70
2022/11/15 07:24:43;;;;;;;11.27;4.40;;;18.80;58.20;;;;;;5034439;28;20037;-71
2022/11/15 07:27:15;;;;;;;15.55;4.75;;;18.80;58.20;;;;;;5039069;28;20512;-71
2022/11/15 07:29:43;;;;;;;18.20;5.05;;;18.80;58.60;;;;;;5041028;28;20077;-69
2022/11/15 07:32:09;;;;;;;13.38;4.97;;;18.80;58.20;;;;;;5036491;28;20484;-70
2022/11/15 07:34:38;;;;;;;14.95;4.40;;;18.80;58.20;;;;;;5045726;28;20052;-71
2022/11/15 07:37:03;;;;;;;11.60;4.85;;;18.90;58.40;;;;;;5019154;28;20032;-71
2022/11/15 07:39:29;;;;;;;10.55;4.55;;;18.90;58.40;;;;;;5044503;28;20033;-70
2022/11/15 07:42:52;;;;;;;12.30;4.28;;;18.80;58.40;;;;;;5043259;28;20049;-70
2022/11/15 07:44:40;;;;;;;7.55;4.35;;;18.80;58.40;;;;;;5040246;28;20052;-72
2022/11/15 07:47:07;;;;;;;10.57;4.55;;;18.90;58.50;;;;;;5038793;28;20041;-69
2022/11/15 07:49:32;;;;;;;11.80;4.45;;;18.90;58.40;;;;;;5009084;28;20504;-70
2022/11/15 07:51:58;;;;;;;8.20;4.47;;;18.90;58.50;;;;;;5029154;28;20045;-68
2022/11/15 07:54:23;;;;;;;11.07;4.40;;;18.90;58.60;;;;;;5024518;28;20087;-68
2022/11/15 07:56:49;;;;;;;8.07;4.60;;;18.90;58.60;;;;;;5045872;28;20044;-68
2022/11/15 07:59:14;;;;;;;8.23;4.40;;;18.90;58.60;;;;;;5026982;28;20056;-67
2022/11/15 08:01:40;;;;;;;9.40;4.28;;;18.90;58.60;;;;;;5021307;28;20499;-71
2022/11/15 08:04:06;;;;;;;11.52;4.45;;;18.90;58.60;;;;;;5045357;28;20489;-68
2022/11/15 08:06:32;;;;;;;14.23;6.43;;;18.90;58.60;;;;;;5044047;28;20041;-68
2022/11/15 08:08:57;;;;;;;7.72;4.40;;;18.90;58.70;;;;;;5023269;28;20048;-67
2022/11/15 08:11:23;;;;;;;7.18;4.28;;;18.90;58.60;;;;;;5040803;28;20235;-67
2022/11/15 08:13:48;;;;;;;9.02;4.72;;;18.90;58.60;;;;;;5016249;28;20208;-68
2022/11/15 08:16:14;;;;;;;9.15;4.57;;;18.90;58.60;;;;;;5045928;28;20037;-69
2022/11/15 08:18:39;;;;;;;7.72;4.47;;;18.90;58.60;;;;;;5046557;28;20546;-68
2022/11/15 08:21:05;;;;;;;8.98;4.40;;;18.90;58.70;;;;;;5045104;28;20040;-69
2022/11/15 08:23:31;;;;;;;7.88;4.47;;;18.90;58.70;;;;;;5029311;28;20061;-67
2022/11/15 08:26:02;;;;;;;7.97;4.05;;;18.90;58.70;;;;;;5043858;28;20033;-68
2022/11/15 08:28:27;;;;;;;10.95;4.20;;;19.00;58.70;;;;;;5026041;28;20345;-68
2022/11/15 08:30:53;;;;;;;4.95;3.85;;;19.00;58.70;;;;;;5024888;28;20044;-69
2022/11/15 08:33:18;;;;;;;8.43;4.28;;;19.00;58.80;;;;;;5044365;28;20037;-67
2022/11/15 08:35:44;;;;;;;10.85;4.57;;;19.00;58.80;;;;;;5041413;28;20038;-70
2022/11/15 08:38:10;;;;;;;8.55;4.35;;;19.00;58.70;;;;;;5041717;28;20495;-69
2022/11/15 08:40:37;;;;;;;10.25;4.22;;;19.00;58.60;;;;;;5029056;28;20044;-69
2022/11/15 08:43:03;;;;;;;7.40;3.97;;;19.00;58.60;;;;;;5027043;28;20057;-71
2022/11/15 08:45:29;;;;;;;7.75;3.90;;;19.00;58.60;;;;;;5029110;28;20049;-67
2022/11/15 08:47:55;;;;;;;8.85;4.07;;;19.00;58.60;;;;;;5035412;28;20041;-71
2022/11/15 08:50:21;;;;;;;6.00;3.92;;;19.00;58.60;;;;;;5045179;28;20496;-68
2022/11/15 08:52:48;;;;;;;8.60;3.70;;;18.90;58.50;;;;;;5043934;28;20445;-70
2022/11/15 08:55:13;;;;;;;15.00;3.90;;;19.00;58.50;;;;;;5040713;28;20069;-70
2022/11/15 08:57:39;;;;;;;8.95;4.43;;;18.90;58.50;;;;;;5023853;28;20041;-70
2022/11/15 09:00:06;;;;;;;8.82;4.00;;;18.90;58.50;;;;;;5032577;28;20049;-71
2022/11/15 09:02:31;;;;;;;7.53;4.28;;;18.90;58.60;;;;;;5033773;28;20517;-71
2022/11/15 09:04:57;;;;;;;6.63;3.90;;;18.90;58.60;;;;;;5039210;28;20052;-68
2022/11/15 09:07:23;;;;;;;7.15;3.88;;;18.90;58.60;;;;;;5021362;28;20060;-68
2022/11/15 09:09:49;;;;;;;8.80;4.20;;;18.90;58.60;;;;;;5023178;28;20057;-69
2022/11/15 09:12:15;;;;;;;9.43;4.10;;;18.90;58.60;;;;;;5032200;28;20071;-67
2022/11/15 09:14:40;;;;;;;5.57;3.78;;;18.90;58.60;;;;;;5032521;28;20649;-69
2022/11/15 09:17:09;;;;;;;7.07;3.60;;;18.90;58.60;;;;;;5004388;28;20508;-70
2022/11/15 09:19:34;;;;;;;6.40;3.88;;;18.90;58.60;;;;;;5021072;28;20060;-70
2022/11/15 09:22:00;;;;;;;7.25;3.97;;;18.90;58.60;;;;;;5026390;28;20037;-71
2022/11/15 09:24:26;;;;;;;6.00;3.60;;;18.90;59.40;;;;;;5018120;28;20131;-71
2022/11/15 09:26:51;;;;;;;9.40;3.78;;;18.90;58.70;;;;;;5028580;28;20029;-71
2022/11/15 09:29:18;;;;;;;8.32;4.00;;;18.90;58.70;;;;;;5053347;28;20040;-71
2022/11/15 09:31:44;;;;;;;10.65;3.97;;;18.90;58.70;;;;;;5027024;28;20040;-73
2022/11/15 09:34:11;;;;;;;11.15;3.95;;;18.90;58.70;;;;;;5027692;28;20045;-70
2022/11/15 09:36:36;;;;;;;6.18;3.90;;;18.90;58.70;;;;;;5044359;28;20049;-69
2022/11/15 09:39:02;;;;;;;8.70;3.83;;;18.90;58.70;;;;;;5045225;28;20179;-70
2022/11/15 09:41:48;;;;;;;6.38;3.70;;;18.90;58.80;;;;;;5045456;28;20056;-72
2022/11/15 09:44:40;;;;;;;6.40;3.67;;;18.90;58.80;;;;;;5043094;28;20073;-71
2022/11/15 09:47:42;;;;;;;6.30;3.60;;;18.90;58.80;;;;;;5043690;28;20441;-71
2022/11/15 09:50:12;;;;;;;6.68;3.50;;;19.00;58.80;;;;;;5046015;28;20037;-68
2022/11/15 09:52:41;;;;;;;6.43;3.67;;;18.90;58.80;;;;;;5041890;28;20073;-70
2022/11/15 09:55:10;;;;;;;6.93;4.10;;;18.90;58.80;;;;;;5038309;28;20131;-70
2022/11/15 09:57:50;;;;;;;8.63;3.35;;;18.90;58.80;;;;;;5043407;28;20040;-70
2022/11/15 10:00:40;;;;;;;6.78;3.67;;;19.00;59.10;;;;;;5041485;28;20052;-70
2022/11/15 10:03:14;;;;;;;7.60;3.70;;;19.00;59.30;;;;;;5009849;28;20361;-69
2022/11/15 10:05:44;;;;;;;5.45;3.78;;;19.00;59.20;;;;;;5002555;28;20087;-66
2022/11/15 10:08:31;;;;;;;4.88;3.53;;;19.00;59.30;;;;;;5047755;28;20037;-71
2022/11/15 10:11:03;;;;;;;5.93;3.63;;;19.00;59.40;;;;;;5036533;28;20427;-67
2022/11/15 10:13:33;;;;;;;8.57;3.65;;;19.00;59.40;;;;;;5037056;28;20213;-70
2022/11/15 10:16:32;;;;;;;6.10;3.65;;;19.00;59.40;;;;;;5040259;28;20048;-72
2022/11/15 10:19:11;;;;;;;8.55;3.97;;;19.00;59.40;;;;;;5033639;28;20413;-70
2022/11/15 10:21:52;;;;;;;10.95;3.80;;;19.00;59.40;;;;;;5020760;28;20040;-70
2022/11/15 10:24:23;;;;;;;11.20;3.88;;;19.00;59.40;;;;;;5020479;28;20047;-70
2022/11/15 10:26:49;;;;;;;8.57;3.38;;;19.00;59.40;;;;;;5040904;28;20699;-73
2022/11/15 10:29:20;;;;;;;8.93;3.67;;;19.00;59.40;;;;;;5024958;28;20169;-75
2022/11/15 10:31:46;;;;;;;5.75;3.58;;;19.00;59.30;;;;;;5024605;28;20068;-73
2022/11/15 10:34:21;;;;;;;6.10;3.75;;;19.00;59.40;;;;;;5005658;28;20407;-74
2022/11/15 10:36:58;;;;;;;5.10;3.50;;;19.00;59.30;;;;;;5038282;28;20140;-71
2022/11/15 10:39:24;;;;;;;5.32;3.17;;;19.00;59.30;;;;;;5033082;28;20131;-74
2022/11/15 10:41:50;;;;;;;7.25;3.60;;;19.10;59.40;;;;;;5024505;28;20049;-72
2022/11/15 10:44:16;;;;;;;5.85;3.70;;;19.10;59.40;;;;;;5021796;28;20496;-71
2022/11/15 10:46:43;;;;;;;6.20;3.67;;;19.00;59.30;;;;;;5025271;28;20052;-74
2022/11/15 10:49:14;;;;;;;5.18;3.38;;;19.00;59.30;;;;;;5019489;28;20041;-71
2022/11/15 10:51:49;;;;;;;9.48;3.20;;;19.00;59.30;;;;;;5044557;28;20080;-69
2022/11/15 10:54:36;;;;;;;5.95;3.53;;;19.10;59.30;;;;;;5041872;28;20064;-72
2022/11/15 10:57:07;;;;;;;6.30;3.63;;;19.10;59.30;;;;;;5042435;28;20037;-69
2022/11/15 10:59:36;;;;;;;4.82;3.25;;;19.10;59.40;;;;;;5038275;28;20042;-71
2022/11/15 11:02:02;;;;;;;4.20;3.20;;;19.10;59.40;;;;;;5024872;28;20074;-74
2022/11/15 11:04:28;;;;;;;5.53;3.25;;;19.10;59.30;;;;;;5037115;28;20413;-73
2022/11/15 11:06:56;;;;;;;5.70;3.33;;;19.10;59.30;;;;;;5023321;28;20325;-73
2022/11/15 11:09:42;;;;;;;6.65;3.63;;;19.10;59.40;;;;;;5025526;28;20047;-73
2022/11/15 11:12:11;;;;;;;6.10;3.53;;;19.10;59.30;;;;;;5035547;28;20221;-73
2022/11/15 11:14:39;;;;;;;5.25;3.03;;;19.10;59.30;;;;;;5039705;28;20116;-73
2022/11/15 11:17:32;;;;;;;4.13;3.03;;;19.10;59.30;;;;;;5024401;28;20511;-69
2022/11/15 11:20:33;;;;;;;3.90;3.17;;;19.10;59.30;;;;;;5043249;28;20040;-74
2022/11/15 11:23:04;;;;;;;4.00;2.90;;;19.10;59.30;;;;;;5012145;28;20132;-71
2022/11/15 11:25:55;;;;;;;5.22;3.33;;;19.10;59.40;;;;;;5043007;28;20187;-71
2022/11/15 11:28:33;;;;;;;7.05;3.22;;;19.10;59.40;;;;;;5041886;28;20049;-72
2022/11/15 11:31:44;;;;;;;5.78;3.38;;;19.10;59.40;;;;;;5024139;28;20094;-73
2022/11/15 11:34:34;;;;;;;4.18;2.90;;;19.10;59.40;;;;;;5024489;28;20388;-74
2022/11/15 11:37:10;;;;;;;4.85;2.97;;;19.20;59.40;;;;;;5025271;28;20347;-70
2022/11/15 11:39:41;;;;;;;4.50;3.30;;;19.20;59.40;;;;;;5014013;28;20037;-73
2022/11/15 11:42:33;;;;;;;6.30;3.08;;;19.20;59.30;;;;;;5014628;28;20053;-68
2022/11/15 11:45:18;;;;;;;5.80;2.67;;;19.20;59.30;;;;;;5019088;28;20121;-70
2022/11/15 11:47:51;;;;;;;6.82;3.28;;;19.30;59.40;;;;;;5037920;28;20187;-68
2022/11/15 11:50:23;;;;;;;3.25;2.80;;;19.30;59.30;;;;;;5028948;28;20124;-68
2022/11/15 11:53:04;;;;;;;5.38;3.05;;;19.30;59.30;;;;;;5023011;28;20041;-65
2022/11/15 11:55:37;;;;;;;5.85;3.00;;;19.30;59.30;;;;;;5041861;28;20119;-71
2022/11/15 11:58:22;;;;;;;7.85;3.00;;;19.30;59.30;;;;;;5022976;28;20041;-70
2022/11/15 12:00:58;;;;;;;4.97;2.85;;;19.40;59.30;;;;;;5039917;28;20262;-69
2022/11/15 12:03:47;;;;;;;4.88;2.95;;;19.40;59.30;;;;;;5040750;28;20033;-67
2022/11/15 12:06:32;;;;;;;6.80;2.75;;;19.30;59.10;;;;;;5016364;28;20102;-69
2022/11/15 12:09:16;;;;;;;10.50;3.00;;;19.40;59.20;;;;;;5037298;28;20040;-70
2022/11/15 12:12:01;;;;;;;7.68;3.08;;;19.30;59.20;;;;;;5020198;28;20099;-70
2022/11/15 12:14:38;;;;;;;5.20;2.88;;;19.30;59.30;;;;;;5039232;28;20029;-70
2022/11/15 12:17:04;;;;;;;5.53;2.70;;;19.40;59.50;;;;;;5005893;28;20502;-71
2022/11/15 12:19:30;;;;;;;3.75;2.85;;;19.40;59.50;;;;;;5022785;28;20057;-72
2022/11/15 12:22:16;;;;;;;8.45;3.03;;;19.40;59.40;;;;;;5045110;28;20535;-68
2022/11/15 12:24:48;;;;;;;6.30;2.75;;;19.40;59.40;;;;;;5040025;28;20460;-69
2022/11/15 12:27:50;;;;;;;7.22;3.10;;;19.40;59.50;;;;;;5024175;28;20144;-71
2022/11/15 12:30:19;;;;;;;7.45;2.95;;;19.40;59.40;;;;;;5025656;28;20132;-71
2022/11/15 12:32:56;;;;;;;7.60;2.83;;;19.40;59.50;;;;;;5041253;28;20026;-72
2022/11/15 12:35:30;;;;;;;5.18;3.13;;;19.40;59.60;;;;;;5041965;28;20045;-70
2022/11/15 12:37:56;;;;;;;6.63;3.00;;;19.40;59.50;;;;;;5043218;28;20049;-71
2022/11/15 12:40:29;;;;;;;5.10;2.92;;;19.40;59.60;;;;;;5022883;28;20136;-71
2022/11/15 12:43:26;;;;;;;6.10;2.80;;;19.40;59.60;;;;;;5041566;28;20079;-71
2022/11/15 12:45:53;;;;;;;4.35;3.05;;;19.40;59.50;;;;;;5017302;28;20045;-71
2022/11/15 12:48:21;;;;;;;4.28;3.13;;;19.40;59.50;;;;;;5043844;28;20033;-71
2022/11/15 12:50:50;;;;;;;;;;;19.40;59.50;;;;;;5022274;28;20080;-72
2022/11/15 12:53:30;;;;;;;8.77;3.40;;;19.40;59.40;;;;;;5024708;28;20275;-70
2022/11/15 12:56:17;;;;;;;6.18;3.28;;;19.40;59.50;;;;;;5040213;28;20575;-69
2022/11/15 12:58:43;;;;;;;5.68;3.03;;;19.50;59.40;;;;;;5042417;28;20053;-69
2022/11/15 13:01:10;;;;;;;6.22;3.10;;;19.50;59.50;;;;;;5040334;28;20044;-70
2022/11/15 13:04:14;;;;;;;5.47;3.13;;;19.50;59.40;;;;;;5039940;28;20059;-71
2022/11/15 13:06:43;;;;;;;6.90;3.08;;;19.50;59.40;;;;;;5025620;28;20061;-71
2022/11/15 13:09:27;;;;;;;3.92;3.03;;;19.50;59.50;;;;;;5024815;28;20106;-70
2022/11/15 13:11:53;;;;;;;3.88;3.17;;;19.50;59.40;;;;;;5012051;28;20037;-68